Time;durP1;ratioP1;P1;durP2;ratioP2;P2;SDS_P1;SDS_P2;PMS_P1;PMS_P2;Temp;Humidity;BMP_temperature;BMP_pressure;BME280_temperature;BME280_humidity;BME280_pressure;Samples;Min_cycle;Max_cycle;Signal;HPM_P1;HPM_P2
2023/04/25 00:01:45;;;;;;;;;11.00;10.80;;;;;;;;5244459;28;8783;-67
2023/04/25 00:04:35;;;;;;;;;11.80;11.60;;;;;;;;5244979;28;8829;-67
2023/04/25 00:07:06;;;;;;;;;9.00;9.00;;;;;;;;5246052;28;8778;-67
2023/04/25 00:09:37;;;;;;;;;6.20;5.20;;;;;;;;5246214;28;8810;-67
2023/04/25 00:12:08;;;;;;;;;7.60;7.60;;;;;;;;5244823;28;8790;-67
2023/04/25 00:14:39;;;;;;;;;8.00;8.00;;;;;;;;5239451;28;8773;-67
2023/04/25 00:17:11;;;;;;;;;8.00;8.00;;;;;;;;5224038;28;8813;-66
2023/04/25 00:19:44;;;;;;;;;8.00;8.00;;;;;;;;5227508;28;8826;-66
2023/04/25 00:22:15;;;;;;;;;8.00;8.00;;;;;;;;5244972;28;8771;-66
2023/04/25 00:24:46;;;;;;;;;7.60;7.60;;;;;;;;5245889;28;8811;-66
2023/04/25 00:27:18;;;;;;;;;6.60;6.60;;;;;;;;5228182;28;9603;-66
2023/04/25 00:29:49;;;;;;;;;7.40;7.40;;;;;;;;5244590;28;8956;-66
2023/04/25 00:32:20;;;;;;;;;9.20;9.20;;;;;;;;5244580;28;8806;-66
2023/04/25 00:34:52;;;;;;;;;9.00;9.00;;;;;;;;5238478;28;8836;-67
2023/04/25 00:37:23;;;;;;;;;8.00;8.00;;;;;;;;5218236;28;8825;-67
2023/04/25 00:39:55;;;;;;;;;7.00;7.00;;;;;;;;5224075;28;8794;-66
2023/04/25 00:42:27;;;;;;;;;7.00;7.00;;;;;;;;5223703;28;9583;-67
2023/04/25 00:44:58;;;;;;;;;7.20;7.20;;;;;;;;5223734;28;8786;-67
2023/04/25 00:47:30;;;;;;;;;6.80;6.80;;;;;;;;5223971;28;9492;-67
2023/04/25 00:50:01;;;;;;;;;6.40;6.40;;;;;;;;5190832;28;8837;-67
2023/04/25 00:52:35;;;;;;;;;8.60;8.60;;;;;;;;5223772;28;9493;-67
2023/04/25 00:55:07;;;;;;;;;7.40;7.40;;;;;;;;5237991;28;9200;-67
2023/04/25 00:57:38;;;;;;;;;7.80;7.80;;;;;;;;5247299;28;8805;-67
2023/04/25 01:00:10;;;;;;;;;7.00;7.00;;;;;;;;5247155;28;8787;-66
2023/04/25 01:02:42;;;;;;;;;6.20;6.20;;;;;;;;5247886;28;8779;-67
2023/04/25 01:05:13;;;;;;;;;5.60;5.60;;;;;;;;5231308;28;8771;-67
2023/04/25 01:07:45;;;;;;;;;5.60;5.60;;;;;;;;5215102;28;8791;-67
2023/04/25 01:10:16;;;;;;;;;5.00;5.00;;;;;;;;5247959;28;8945;-67
2023/04/25 01:12:47;;;;;;;;;8.60;8.60;;;;;;;;5249338;28;8823;-67
2023/04/25 01:15:19;;;;;;;;;6.20;6.20;;;;;;;;5247415;28;8970;-67
2023/04/25 01:17:50;;;;;;;;;6.40;6.40;;;;;;;;5231175;28;9584;-67
2023/04/25 01:20:41;;;;;;;;;6.80;6.80;;;;;;;;5235166;28;8928;-67
2023/04/25 01:23:13;;;;;;;;;3.80;3.80;;;;;;;;5227075;28;9532;-67
2023/04/25 01:25:45;;;;;;;;;7.40;7.40;;;;;;;;5210494;28;8770;-67
2023/04/25 01:28:17;;;;;;;;;7.60;6.60;;;;;;;;5210285;28;8870;-67
2023/04/25 01:30:48;;;;;;;;;7.40;7.40;;;;;;;;5227741;28;8947;-67
2023/04/25 01:33:20;;;;;;;;;6.00;6.00;;;;;;;;5210004;28;9516;-67
2023/04/25 01:35:52;;;;;;;;;9.20;9.20;;;;;;;;5242308;28;8811;-67
2023/04/25 01:38:25;;;;;;;;;9.40;9.20;;;;;;;;5230657;28;8783;-67
2023/04/25 01:40:56;;;;;;;;;10.20;9.40;;;;;;;;5209214;28;8793;-67
2023/04/25 01:43:27;;;;;;;;;16.60;16.60;;;;;;;;5226647;28;8863;-67
2023/04/25 01:45:58;;;;;;;;;19.60;19.00;;;;;;;;5193618;28;8797;-67
2023/04/25 01:48:30;;;;;;;;;17.80;17.80;;;;;;;;5209830;28;8782;-67
2023/04/25 01:51:01;;;;;;;;;17.40;16.00;;;;;;;;5209670;28;8826;-67
2023/04/25 01:53:33;;;;;;;;;11.80;11.80;;;;;;;;5226276;28;9508;-67
2023/04/25 01:56:06;;;;;;;;;9.00;9.00;;;;;;;;5224011;28;8793;-67
2023/04/25 01:58:39;;;;;;;;;8.40;8.40;;;;;;;;5209976;28;8782;-67
2023/04/25 02:01:30;;;;;;;;;15.00;15.00;;;;;;;;5226465;28;9524;-67
2023/04/25 02:04:19;;;;;;;;;23.80;22.80;;;;;;;;5212181;28;8778;-67
2023/04/25 02:07:09;;;;;;;;;11.60;10.80;;;;;;;;5211917;28;8806;-67
2023/04/25 02:09:58;;;;;;;;;9.40;9.40;;;;;;;;5225872;28;8814;-67
2023/04/25 02:12:32;;;;;;;;;7.00;7.00;;;;;;;;5209518;28;8778;-67
2023/04/25 02:15:18;;;;;;;;;5.50;5.50;;;;;;;;5227283;28;8786;-67
2023/04/25 02:18:20;;;;;;;;;5.00;5.00;;;;;;;;5212595;28;8932;-67
2023/04/25 02:20:52;;;;;;;;;7.50;7.50;;;;;;;;5225996;28;8822;-67
2023/04/25 02:23:41;;;;;;;;;8.25;8.25;;;;;;;;5226159;28;8802;-67
2023/04/25 02:26:13;;;;;;;;;6.50;6.50;;;;;;;;5225684;28;8785;-67
2023/04/25 02:28:46;;;;;;;;;6.33;6.33;;;;;;;;5209018;28;8805;-67
2023/04/25 02:31:17;;;;;;;;;6.50;6.50;;;;;;;;5221760;28;9520;-67
2023/04/25 02:34:06;;;;;;;;;6.00;6.00;;;;;;;;5214551;28;8811;-67
2023/04/25 02:36:56;;;;;;;;;30.40;28.80;;;;;;;;5246138;28;8809;-67
2023/04/25 02:39:27;;;;;;;;;7.50;7.50;;;;;;;;5246718;28;8810;-67
2023/04/25 02:41:58;;;;;;;;;6.00;6.00;;;;;;;;5240927;28;8798;-67
2023/04/25 02:44:29;;;;;;;;;8.75;8.75;;;;;;;;5230550;28;8808;-67
2023/04/25 02:47:00;;;;;;;;;6.25;6.25;;;;;;;;5215072;28;8825;-67
2023/04/25 02:49:31;;;;;;;;;5.25;5.25;;;;;;;;5243332;28;8827;-66
2023/04/25 02:52:02;;;;;;;;;5.00;5.00;;;;;;;;5245973;28;8797;-67
2023/04/25 02:54:33;;;;;;;;;5.00;5.00;;;;;;;;5208230;28;9501;-67
2023/04/25 02:57:05;;;;;;;;;4.75;4.75;;;;;;;;5228274;28;8790;-67
2023/04/25 02:59:40;;;;;;;;;6.00;6.00;;;;;;;;5237237;28;8799;-67
2023/04/25 03:02:11;;;;;;;;;5.25;5.25;;;;;;;;5235522;28;8778;-67
2023/04/25 03:04:42;;;;;;;;;8.25;8.25;;;;;;;;5240807;28;8896;-66
2023/04/25 03:07:32;;;;;;;;;61.00;47.60;;;;;;;;5223604;28;8955;-66
2023/04/25 03:10:05;;;;;;;;;11.60;11.20;;;;;;;;5237510;28;8830;-67
2023/04/25 03:12:38;;;;;;;;;8.25;8.25;;;;;;;;5212701;28;9575;-66
2023/04/25 03:15:09;;;;;;;;;8.00;8.00;;;;;;;;5244368;28;8807;-65
2023/04/25 03:17:59;;;;;;;;;6.25;6.25;;;;;;;;5240263;28;8811;-66
2023/04/25 03:20:30;;;;;;;;;7.00;7.00;;;;;;;;5235136;28;8838;-66
2023/04/25 03:23:01;;;;;;;;;5.25;5.25;;;;;;;;5226212;28;8782;-66
2023/04/25 03:25:33;;;;;;;;;6.00;6.00;;;;;;;;5223730;28;8808;-66
2023/04/25 03:28:04;;;;;;;;;5.00;5.00;;;;;;;;5206265;28;8918;-67
2023/04/25 03:30:36;;;;;;;;;6.00;6.00;;;;;;;;5224710;28;8829;-67
2023/04/25 03:33:25;;;;;;;;;3.75;3.75;;;;;;;;5210543;28;8800;-67
2023/04/25 03:35:56;;;;;;;;;5.00;5.00;;;;;;;;5242503;28;8871;-66
2023/04/25 03:38:27;;;;;;;;;6.50;6.50;;;;;;;;5228484;28;8815;-67
2023/04/25 03:40:58;;;;;;;;;7.00;6.75;;;;;;;;5228643;28;8790;-66
2023/04/25 03:43:44;;;;;;;;;10.00;10.00;;;;;;;;5228643;28;8811;-72
2023/04/25 03:46:17;;;;;;;;;6.50;6.50;;;;;;;;5246280;28;8807;-71
2023/04/25 03:48:50;;;;;;;;;5.50;5.50;;;;;;;;5226910;28;8858;-72
2023/04/25 03:51:26;;;;;;;;;8.25;8.00;;;;;;;;5229307;28;8783;-72
2023/04/25 03:53:58;;;;;;;;;6.75;6.75;;;;;;;;5226723;28;9864;-72
2023/04/25 03:56:48;;;;;;;;;7.50;7.50;;;;;;;;5230996;28;8794;-71
2023/04/25 03:59:25;;;;;;;;;7.75;7.75;;;;;;;;5244931;28;8851;-72
2023/04/25 04:01:57;;;;;;;;;7.50;7.50;;;;;;;;5194286;28;8817;-74
2023/04/25 04:04:28;;;;;;;;;6.25;6.25;;;;;;;;5207497;28;8778;-70
2023/04/25 04:07:00;;;;;;;;;7.25;7.25;;;;;;;;5208020;28;9455;-72
2023/04/25 04:09:34;;;;;;;;;7.25;7.25;;;;;;;;5223911;28;8952;-74
2023/04/25 04:12:10;;;;;;;;;7.75;7.75;;;;;;;;5208332;28;8804;-71
2023/04/25 04:14:44;;;;;;;;;8.75;8.75;;;;;;;;5231755;28;8779;-73
2023/04/25 04:17:16;;;;;;;;;8.00;8.00;;;;;;;;5228227;28;8913;-72
2023/04/25 04:19:49;;;;;;;;;6.75;6.75;;;;;;;;5212056;28;8803;-73
2023/04/25 04:22:24;;;;;;;;;6.00;6.00;;;;;;;;5228355;28;8792;-75
2023/04/25 04:25:14;;;;;;;;;9.25;9.25;;;;;;;;5230600;28;8795;-75
2023/04/25 04:28:13;;;;;;;;;6.75;6.75;;;;;;;;5217289;28;8811;-76
2023/04/25 04:31:03;;;;;;;;;9.50;9.50;;;;;;;;5224112;28;8793;-72
2023/04/25 04:33:35;;;;;;;;;5.25;5.25;;;;;;;;5227941;28;8793;-74
2023/04/25 04:36:09;;;;;;;;;6.50;6.50;;;;;;;;5210937;28;8817;-75
2023/04/25 04:38:42;;;;;;;;;10.00;10.00;;;;;;;;5228199;28;8845;-75
2023/04/25 04:41:21;;;;;;;;;10.00;10.00;;;;;;;;5212497;28;8792;-72
2023/04/25 04:44:00;;;;;;;;;7.50;7.50;;;;;;;;5211450;28;8808;-72
2023/04/25 04:46:58;;;;;;;;;12.00;11.50;;;;;;;;5210797;28;8785;-72
2023/04/25 04:49:37;;;;;;;;;9.25;9.25;;;;;;;;5212350;28;8837;-74
2023/04/25 04:52:28;;;;;;;;;6.50;6.50;;;;;;;;5228864;28;8815;-71
2023/04/25 04:55:17;;;;;;;;;8.00;8.00;;;;;;;;5233889;28;8831;-73
2023/04/25 04:58:15;;;;;;;;;8.00;8.00;;;;;;;;5233053;28;8915;-72
2023/04/25 05:00:54;;;;;;;;;9.00;9.00;;;;;;;;5248355;28;8783;-73
2023/04/25 05:03:38;;;;;;;;;9.50;9.50;;;;;;;;5233851;28;8791;-73
2023/04/25 05:06:31;;;;;;;;;4.00;4.00;;;;;;;;5233730;28;8878;-72
2023/04/25 05:09:27;;;;;;;;;8.50;8.50;;;;;;;;5218830;28;8838;-67
2023/04/25 05:12:34;;;;;;;;;9.00;9.00;;;;;;;;5230220;28;8973;-66
2023/04/25 05:15:18;;;;;;;;;9.00;9.00;;;;;;;;5247973;28;8787;-67
2023/04/25 05:17:59;;;;;;;;;13.25;13.25;;;;;;;;5232850;28;8915;-76
2023/04/25 05:20:50;;;;;;;;;11.50;10.75;;;;;;;;5234119;28;8794;-76
2023/04/25 05:23:39;;;;;;;;;9.50;9.50;;;;;;;;5216988;28;8803;-76
2023/04/25 05:26:39;;;;;;;;;8.00;8.00;;;;;;;;5218947;28;8917;-76
2023/04/25 05:29:27;;;;;;;;;6.50;6.50;;;;;;;;5233500;28;8842;-76
2023/04/25 05:32:28;;;;;;;;;9.75;8.75;;;;;;;;5226125;28;9591;-76
2023/04/25 05:35:00;;;;;;;;;8.50;8.50;;;;;;;;5214689;28;8811;-76
2023/04/25 05:37:37;;;;;;;;;7.00;7.00;;;;;;;;5214927;28;8803;-76
2023/04/25 05:40:19;;;;;;;;;5.00;5.00;;;;;;;;5215541;28;8786;-77
2023/04/25 05:43:17;;;;;;;;;9.50;9.50;;;;;;;;5217058;28;8791;-76
2023/04/25 05:46:18;;;;;;;;;11.00;11.00;;;;;;;;5234403;28;8787;-76
2023/04/25 05:48:59;;;;;;;;;8.50;8.50;;;;;;;;5247560;28;8783;-76
2023/04/25 05:52:07;;;;;;;;;8.00;8.00;;;;;;;;5188256;28;8801;-76
2023/04/25 05:54:39;;;;;;;;;5.50;5.50;;;;;;;;5220625;28;8783;-77
2023/04/25 05:57:24;;;;;;;;;5.50;5.25;;;;;;;;5214603;28;9548;-77
2023/04/25 05:59:57;;;;;;;;;7.50;7.50;;;;;;;;5247302;28;8819;-77
2023/04/25 06:02:48;;;;;;;;;5.00;5.00;;;;;;;;5232894;28;8811;-76
2023/04/25 06:05:21;;;;;;;;;7.50;7.50;;;;;;;;5213702;28;8821;-76
2023/04/25 06:07:54;;;;;;;;;7.00;7.00;;;;;;;;5213732;28;9490;-76
2023/04/25 06:10:26;;;;;;;;;7.25;7.25;;;;;;;;5213467;28;8823;-77
2023/04/25 06:12:58;;;;;;;;;10.75;10.75;;;;;;;;5246887;28;8868;-77
2023/04/25 06:15:34;;;;;;;;;7.50;7.50;;;;;;;;5230049;28;8783;-77
2023/04/25 06:18:06;;;;;;;;;7.25;7.25;;;;;;;;5247197;28;8821;-77
2023/04/25 06:20:39;;;;;;;;;9.50;9.50;;;;;;;;5208501;28;8818;-68
2023/04/25 06:23:11;;;;;;;;;7.50;7.50;;;;;;;;5233912;28;8782;-76
2023/04/25 06:26:04;;;;;;;;;8.25;8.25;;;;;;;;5205075;28;8786;-76
2023/04/25 06:28:54;;;;;;;;;8.00;8.00;;;;;;;;5226098;28;9615;-76
2023/04/25 06:31:28;;;;;;;;;7.50;7.50;;;;;;;;5210392;28;9575;-76
2023/04/25 06:34:02;;;;;;;;;8.00;8.00;;;;;;;;5225878;28;8809;-76
2023/04/25 06:36:37;;;;;;;;;7.75;7.75;;;;;;;;5225511;28;9532;-76
2023/04/25 06:39:13;;;;;;;;;9.75;9.75;;;;;;;;5229242;28;8779;-76
2023/04/25 06:41:45;;;;;;;;;7.50;7.50;;;;;;;;5209922;28;8782;-76
2023/04/25 06:44:41;;;;;;;;;7.50;7.25;;;;;;;;5211963;28;8790;-76
2023/04/25 06:47:31;;;;;;;;;8.75;8.75;;;;;;;;5211262;28;8971;-66
2023/04/25 06:50:05;;;;;;;;;9.75;9.75;;;;;;;;5228881;28;8895;-68
2023/04/25 06:52:55;;;;;;;;;7.00;7.00;;;;;;;;5226790;28;8867;-68
2023/04/25 06:55:28;;;;;;;;;7.25;7.00;;;;;;;;5233669;28;8806;-69
2023/04/25 06:58:12;;;;;;;;;8.25;8.25;;;;;;;;5225718;28;9502;-68
2023/04/25 07:01:03;;;;;;;;;7.25;7.25;;;;;;;;5225333;28;8801;-68
2023/04/25 07:03:34;;;;;;;;;8.00;8.00;;;;;;;;5219373;28;8906;-68
2023/04/25 07:06:11;;;;;;;;;7.00;7.00;;;;;;;;5224745;28;8802;-68
2023/04/25 07:08:43;;;;;;;;;8.50;8.50;;;;;;;;5224929;28;8885;-68
2023/04/25 07:11:14;;;;;;;;;12.00;12.00;;;;;;;;5221202;28;8952;-68
2023/04/25 07:13:45;;;;;;;;;7.75;7.75;;;;;;;;5241362;28;8789;-68
2023/04/25 07:16:16;;;;;;;;;8.50;8.50;;;;;;;;5241294;28;8794;-69
2023/04/25 07:18:47;;;;;;;;;8.25;7.75;;;;;;;;5246523;28;8869;-69
2023/04/25 07:21:19;;;;;;;;;8.00;8.00;;;;;;;;5245387;28;8802;-69
2023/04/25 07:23:52;;;;;;;;;7.25;7.25;;;;;;;;5192144;28;8789;-68
2023/04/25 07:26:28;;;;;;;;;5.75;5.75;;;;;;;;5257789;28;8882;-68
2023/04/25 07:29:19;;;;;;;;;9.00;9.00;;;;;;;;5267315;28;8888;-68
2023/04/25 07:31:50;;;;;;;;;14.25;14.25;;;;;;;;5266033;28;8796;-68
2023/04/25 07:34:21;;;;;;;;;10.00;9.75;;;;;;;;5249112;28;8780;-68
2023/04/25 07:36:52;;;;;;;;;8.75;8.25;;;;;;;;5265812;28;8834;-68
2023/04/25 07:39:24;;;;;;;;;8.75;8.75;;;;;;;;5266481;28;8788;-69
2023/04/25 07:41:56;;;;;;;;;9.75;9.75;;;;;;;;5260444;28;8821;-69
2023/04/25 07:44:38;;;;;;;;;8.50;8.50;;;;;;;;5226800;28;8806;-68
2023/04/25 07:47:10;;;;;;;;;10.00;10.00;;;;;;;;5243493;28;8821;-68
2023/04/25 07:49:41;;;;;;;;;8.25;8.25;;;;;;;;5226805;28;9505;-69
2023/04/25 07:52:12;;;;;;;;;8.00;8.00;;;;;;;;5243250;28;8848;-68
2023/04/25 07:54:48;;;;;;;;;8.00;8.00;;;;;;;;5243169;28;8860;-68
2023/04/25 07:57:24;;;;;;;;;9.25;9.25;;;;;;;;5226942;28;8791;-68
2023/04/25 07:59:56;;;;;;;;;9.50;9.50;;;;;;;;5225282;28;9593;-68
2023/04/25 08:02:28;;;;;;;;;9.75;9.75;;;;;;;;5243541;28;8900;-67
2023/04/25 08:05:00;;;;;;;;;6.75;6.75;;;;;;;;5243792;28;8872;-69
2023/04/25 08:07:31;;;;;;;;;9.75;9.75;;;;;;;;5246257;28;9577;-68
2023/04/25 08:10:07;;;;;;;;;7.50;7.50;;;;;;;;5247541;28;8830;-68
2023/04/25 08:12:38;;;;;;;;;10.25;10.25;;;;;;;;5230853;28;8818;-68
2023/04/25 08:15:10;;;;;;;;;8.50;8.50;;;;;;;;5225422;28;8821;-68
2023/04/25 08:17:44;;;;;;;;;7.00;7.00;;;;;;;;5213294;28;8818;-67
2023/04/25 08:20:16;;;;;;;;;10.50;10.50;;;;;;;;5228014;28;8875;-68
2023/04/25 08:22:49;;;;;;;;;7.75;7.75;;;;;;;;5234606;28;9521;-68
2023/04/25 08:25:55;;;;;;;;;7.50;7.50;;;;;;;;5231045;28;8791;-67
2023/04/25 08:28:31;;;;;;;;;7.00;7.00;;;;;;;;5248722;28;8806;-68
2023/04/25 08:31:04;;;;;;;;;8.50;8.50;;;;;;;;5227815;28;9521;-67
2023/04/25 08:33:44;;;;;;;;;7.00;7.00;;;;;;;;5228618;28;8782;-67
2023/04/25 08:36:27;;;;;;;;;8.00;8.00;;;;;;;;5227890;28;8844;-68
2023/04/25 08:38:59;;;;;;;;;7.50;7.50;;;;;;;;5211236;28;8782;-68
2023/04/25 08:41:31;;;;;;;;;9.00;9.00;;;;;;;;5229402;28;8770;-68
2023/04/25 08:44:09;;;;;;;;;9.25;9.25;;;;;;;;5233715;28;9620;-68
2023/04/25 08:46:40;;;;;;;;;8.00;8.00;;;;;;;;5249859;28;8861;-69
2023/04/25 08:49:34;;;;;;;;;6.25;6.25;;;;;;;;5227508;28;8826;-68
2023/04/25 08:52:06;;;;;;;;;6.00;6.00;;;;;;;;5227719;28;8796;-68
2023/04/25 08:54:43;;;;;;;;;7.50;7.50;;;;;;;;5234537;28;9637;-69
2023/04/25 08:57:15;;;;;;;;;297.50;221.50;;;;;;;;5248560;28;8767;-68
2023/04/25 08:59:46;;;;;;;;;85.60;78.60;;;;;;;;5231449;28;11661;-68
2023/04/25 09:02:20;;;;;;;;;26.40;26.40;;;;;;;;5247373;28;8826;-68
2023/04/25 09:04:55;;;;;;;;;11.75;11.75;;;;;;;;5235294;28;8791;-68
2023/04/25 09:07:26;;;;;;;;;9.00;9.00;;;;;;;;5239964;28;8899;-68
2023/04/25 09:10:01;;;;;;;;;6.00;6.00;;;;;;;;5244208;28;8977;-68
2023/04/25 09:12:35;;;;;;;;;8.00;8.00;;;;;;;;5226048;28;8790;-67
2023/04/25 09:15:24;;;;;;;;;7.75;7.75;;;;;;;;5228561;28;8797;-67
2023/04/25 09:18:24;;;;;;;;;5.00;5.00;;;;;;;;5238529;28;8888;-69
2023/04/25 09:21:14;;;;;;;;;6.25;6.25;;;;;;;;5212714;28;8786;-68
2023/04/25 09:23:46;;;;;;;;;7.00;7.00;;;;;;;;5238418;28;8906;-68
2023/04/25 09:26:21;;;;;;;;;8.50;8.50;;;;;;;;5231136;28;8803;-67
2023/04/25 09:29:20;;;;;;;;;3.50;3.50;;;;;;;;5247750;28;8779;-67
2023/04/25 09:32:15;;;;;;;;;9.25;9.25;;;;;;;;5248917;28;8795;-68
2023/04/25 09:34:51;;;;;;;;;5.50;5.50;;;;;;;;5228917;28;9514;-67
2023/04/25 09:37:40;;;;;;;;;6.25;6.25;;;;;;;;5227808;28;9555;-68
2023/04/25 09:40:30;;;;;;;;;16.25;16.25;;;;;;;;5231718;28;8817;-68
2023/04/25 09:43:23;;;;;;;;;6.00;6.00;;;;;;;;5238670;28;8803;-68
2023/04/25 09:46:00;;;;;;;;;4.50;4.50;;;;;;;;5244482;28;8790;-69
2023/04/25 09:48:32;;;;;;;;;6.25;6.25;;;;;;;;5230638;28;8936;-69
2023/04/25 09:51:08;;;;;;;;;5.50;5.50;;;;;;;;5240965;28;8942;-68
2023/04/25 09:53:40;;;;;;;;;7.25;7.25;;;;;;;;5230815;28;8795;-69
2023/04/25 09:56:31;;;;;;;;;7.50;7.00;;;;;;;;5244222;28;8933;-69
2023/04/25 09:59:02;;;;;;;;;5.50;5.50;;;;;;;;5234717;28;8931;-68
2023/04/25 10:01:53;;;;;;;;;5.50;5.50;;;;;;;;5229330;28;8912;-68
2023/04/25 10:04:34;;;;;;;;;5.00;5.00;;;;;;;;5227997;28;9027;-69
2023/04/25 10:07:09;;;;;;;;;5.00;5.00;;;;;;;;5209361;28;8782;-68
2023/04/25 10:10:01;;;;;;;;;4.50;4.50;;;;;;;;5225928;28;8877;-68
2023/04/25 10:12:51;;;;;;;;;4.00;4.00;;;;;;;;5228529;28;8798;-69
2023/04/25 10:15:23;;;;;;;;;4.25;4.25;;;;;;;;5225975;28;8824;-68
2023/04/25 10:18:12;;;;;;;;;4.75;4.75;;;;;;;;5231393;28;8815;-66
2023/04/25 10:20:44;;;;;;;;;4.00;4.00;;;;;;;;5235103;28;8803;-66
2023/04/25 10:23:15;;;;;;;;;3.00;3.00;;;;;;;;5230098;28;8797;-68
2023/04/25 10:25:46;;;;;;;;;7.25;7.25;;;;;;;;5217286;28;8819;-69
2023/04/25 10:28:17;;;;;;;;;7.00;7.00;;;;;;;;5244126;28;8779;-69
2023/04/25 10:31:05;;;;;;;;;4.25;4.25;;;;;;;;5237122;28;11229;-69
2023/04/25 10:33:37;;;;;;;;;5.00;5.00;;;;;;;;5246625;28;8893;-68
2023/04/25 10:36:13;;;;;;;;;7.00;7.00;;;;;;;;5225230;28;8849;-68
2023/04/25 10:38:44;;;;;;;;;3.25;3.25;;;;;;;;5240418;28;8787;-68
2023/04/25 10:41:18;;;;;;;;;4.75;4.75;;;;;;;;5239915;28;8865;-69
2023/04/25 10:43:50;;;;;;;;;5.00;5.00;;;;;;;;5244015;28;8789;-69
2023/04/25 10:46:26;;;;;;;;;3.75;3.75;;;;;;;;5243439;28;8801;-69
2023/04/25 10:48:57;;;;;;;;;4.25;4.25;;;;;;;;5229866;28;8787;-70
2023/04/25 10:51:32;;;;;;;;;4.00;4.00;;;;;;;;5241369;28;8843;-69
2023/04/25 10:54:07;;;;;;;;;6.25;6.25;;;;;;;;5225103;28;8899;-69
2023/04/25 10:56:40;;;;;;;;;5.50;5.50;;;;;;;;5225066;28;8822;-68
2023/04/25 10:59:13;;;;;;;;;5.00;5.00;;;;;;;;5225187;28;8782;-68
2023/04/25 11:01:48;;;;;;;;;5.75;5.75;;;;;;;;5225168;28;9580;-68
2023/04/25 11:04:33;;;;;;;;;2.25;2.25;;;;;;;;5226459;28;8782;-68
2023/04/25 11:07:34;;;;;;;;;5.00;5.00;;;;;;;;5231616;28;8807;-68
2023/04/25 11:10:06;;;;;;;;;2.50;2.50;;;;;;;;5235102;28;8813;-68
2023/04/25 11:12:56;;;;;;;;;4.00;4.00;;;;;;;;5236193;28;8805;-68
2023/04/25 11:15:27;;;;;;;;;3.00;3.00;;;;;;;;5226112;28;8792;-68
2023/04/25 11:17:58;;;;;;;;;1.25;1.25;;;;;;;;5241329;28;9565;-69
2023/04/25 11:20:29;;;;;;;;;2.75;2.75;;;;;;;;5244512;28;8807;-68
2023/04/25 11:23:01;;;;;;;;;3.00;3.00;;;;;;;;5224408;28;8862;-68
2023/04/25 11:25:52;;;;;;;;;4.75;4.75;;;;;;;;5243641;28;8803;-68
2023/04/25 11:28:23;;;;;;;;;3.00;3.00;;;;;;;;5229091;28;8797;-68
2023/04/25 11:30:54;;;;;;;;;4.75;4.75;;;;;;;;5229407;28;8822;-68
2023/04/25 11:33:27;;;;;;;;;2.25;2.25;;;;;;;;5242847;28;8795;-69
2023/04/25 11:35:57;;;;;;;;;3.75;3.75;;;;;;;;5232096;28;9591;-69
2023/04/25 11:38:28;;;;;;;;;3.00;3.00;;;;;;;;5228815;28;8810;-69
2023/04/25 11:40:59;;;;;;;;;4.25;4.25;;;;;;;;5242081;28;8803;-69
2023/04/25 11:43:30;;;;;;;;;7.33;7.00;;;;;;;;5237348;28;8821;-66
2023/04/25 11:46:06;;;;;;;;;3.25;3.25;;;;;;;;5244996;28;9548;-66
2023/04/25 11:48:38;;;;;;;;;5.75;5.75;;;;;;;;5207252;28;8802;-69
2023/04/25 11:51:09;;;;;;;;;3.00;2.00;;;;;;;;5229759;28;8856;-69
2023/04/25 11:53:44;;;;;;;;;4.25;4.25;;;;;;;;5237947;28;8791;-69
2023/04/25 11:56:15;;;;;;;;;3.00;3.00;;;;;;;;5235040;28;8805;-68
2023/04/25 11:58:56;;;;;;;;;2.00;2.00;;;;;;;;5234648;28;8814;-69
2023/04/25 12:01:34;;;;;;;;;4.00;4.00;;;;;;;;5221507;28;8883;-69
2023/04/25 12:04:15;;;;;;;;;3.00;3.00;;;;;;;;5238331;28;8848;-69
2023/04/25 12:06:48;;;;;;;;;3.00;3.00;;;;;;;;5243111;28;8775;-69
2023/04/25 12:09:30;;;;;;;;;11.00;11.00;;;;;;;;5237512;28;8844;-69
2023/04/25 12:12:19;;;;;;;;;4.25;4.25;;;;;;;;5235584;28;9554;-69
2023/04/25 12:14:51;;;;;;;;;1.25;1.25;;;;;;;;5222413;28;8803;-69
2023/04/25 12:17:22;;;;;;;;;0.00;0.00;;;;;;;;5227763;28;9549;-69
2023/04/25 12:19:53;;;;;;;;;3.25;3.25;;;;;;;;5222245;28;8832;-69
2023/04/25 12:22:24;;;;;;;;;3.33;3.33;;;;;;;;5222395;28;8813;-69
2023/04/25 12:24:58;;;;;;;;;2.00;2.00;;;;;;;;5237320;28;12220;-69
2023/04/25 12:27:30;;;;;;;;;2.25;2.25;;;;;;;;5238461;28;8857;-70
2023/04/25 12:30:01;;;;;;;;;2.00;2.00;;;;;;;;5234311;28;8818;-69
2023/04/25 12:32:38;;;;;;;;;2.00;2.00;;;;;;;;5244011;28;8775;-69
2023/04/25 12:35:27;;;;;;;;;3.75;3.75;;;;;;;;5225131;28;8854;-69
2023/04/25 12:37:58;;;;;;;;;0.75;0.75;;;;;;;;5231158;28;9646;-68
2023/04/25 12:40:47;;;;;;;;;3.50;3.50;;;;;;;;5208473;28;8813;-69
2023/04/25 12:43:19;;;;;;;;;1.75;1.75;;;;;;;;5223629;28;8852;-68
2023/04/25 12:45:51;;;;;;;;;6.50;6.50;;;;;;;;5232405;28;8794;-68
2023/04/25 12:48:22;;;;;;;;;2.00;2.00;;;;;;;;5239173;28;9526;-69
2023/04/25 12:50:53;;;;;;;;;2.00;2.00;;;;;;;;5244830;28;8811;-69
2023/04/25 12:53:24;;;;;;;;;2.50;2.50;;;;;;;;5231775;28;8763;-68
2023/04/25 12:55:56;;;;;;;;;3.00;3.00;;;;;;;;5231708;28;9567;-68
2023/04/25 12:58:27;;;;;;;;;2.00;2.00;;;;;;;;5247708;28;8775;-68
2023/04/25 13:00:58;;;;;;;;;0.67;0.67;;;;;;;;5242321;28;8807;-68
2023/04/25 13:03:29;;;;;;;;;1.00;1.00;;;;;;;;5248342;28;9637;-68
2023/04/25 13:06:00;;;;;;;;;1.00;1.00;;;;;;;;5231427;28;8763;-68
2023/04/25 13:08:31;;;;;;;;;1.50;1.50;;;;;;;;5247894;28;8849;-68
2023/04/25 13:11:03;;;;;;;;;3.00;3.00;;;;;;;;5244920;28;10045;-69
2023/04/25 13:13:53;;;;;;;;;4.75;4.75;;;;;;;;5246387;28;8807;-68
2023/04/25 13:16:24;;;;;;;;;1.00;1.00;;;;;;;;5247842;28;9537;-68
2023/04/25 13:18:56;;;;;;;;;1.00;1.00;;;;;;;;5227607;28;8782;-68
2023/04/25 13:21:27;;;;;;;;;1.00;1.00;;;;;;;;5229344;28;11484;-67
2023/04/25 13:23:58;;;;;;;;;1.25;1.25;;;;;;;;5228495;28;8778;-67
2023/04/25 13:26:29;;;;;;;;;1.00;1.00;;;;;;;;5210433;28;8850;-68
2023/04/25 13:29:02;;;;;;;;;3.75;3.75;;;;;;;;5227202;28;8771;-68
2023/04/25 13:31:33;;;;;;;;;9.50;9.50;;;;;;;;5245891;28;8815;-67
2023/04/25 13:34:04;;;;;;;;;2.50;2.50;;;;;;;;5247609;28;8755;-67
2023/04/25 13:36:35;;;;;;;;;3.00;3.00;;;;;;;;5248565;28;8799;-67
2023/04/25 13:39:06;;;;;;;;;1.00;1.00;;;;;;;;5247430;28;9509;-68
2023/04/25 13:41:37;;;;;;;;;4.50;4.50;;;;;;;;5230742;28;9120;-67
2023/04/25 13:44:08;;;;;;;;;2.75;2.75;;;;;;;;5247393;28;8759;-67
2023/04/25 13:46:39;;;;;;;;;2.00;2.00;;;;;;;;5226198;28;8805;-68
2023/04/25 13:49:11;;;;;;;;;7.25;7.25;;;;;;;;5227215;28;8839;-68
2023/04/25 13:52:00;;;;;;;;;7.00;7.00;;;;;;;;5226457;28;8809;-68
2023/04/25 13:54:31;;;;;;;;;3.00;3.00;;;;;;;;5226604;28;8777;-68
2023/04/25 13:57:02;;;;;;;;;2.00;2.00;;;;;;;;5226326;28;8813;-68
2023/04/25 13:59:33;;;;;;;;;2.75;2.75;;;;;;;;5210246;28;8804;-68
2023/04/25 14:02:23;;;;;;;;;5.50;5.50;;;;;;;;5212180;28;8766;-68
2023/04/25 14:04:54;;;;;;;;;3.00;3.00;;;;;;;;5225841;28;8802;-68
2023/04/25 14:07:26;;;;;;;;;5.00;5.00;;;;;;;;5209914;28;9519;-68
2023/04/25 14:09:59;;;;;;;;;1.50;1.50;;;;;;;;5227228;28;8817;-68
2023/04/25 14:12:31;;;;;;;;;3.00;3.00;;;;;;;;5226011;28;8789;-69
2023/04/25 14:15:02;;;;;;;;;3.00;3.00;;;;;;;;5225710;28;8963;-69
2023/04/25 14:17:37;;;;;;;;;2.75;2.75;;;;;;;;5210394;28;8798;-66
2023/04/25 14:20:09;;;;;;;;;2.50;2.50;;;;;;;;5209447;28;8790;-69
2023/04/25 14:22:43;;;;;;;;;2.75;2.75;;;;;;;;5209240;28;8875;-69
2023/04/25 14:25:14;;;;;;;;;4.25;4.25;;;;;;;;5225797;28;9521;-69
2023/04/25 14:27:49;;;;;;;;;12.75;12.00;;;;;;;;5209490;28;8801;-69
2023/04/25 14:30:21;;;;;;;;;6.00;6.00;;;;;;;;5226420;28;8827;-68
2023/04/25 14:32:52;;;;;;;;;6.75;6.50;;;;;;;;5225598;28;8770;-69
2023/04/25 14:35:23;;;;;;;;;6.25;6.25;;;;;;;;5225523;28;8825;-68
2023/04/25 14:37:53;;;;;;;;;2.33;2.33;;;;;;;;5225513;28;8802;-69
2023/04/25 14:40:25;;;;;;;;;9.00;9.00;;;;;;;;5225452;28;11514;-68
2023/04/25 14:42:56;;;;;;;;;8.75;8.75;;;;;;;;5209043;28;9493;-66
2023/04/25 14:45:27;;;;;;;;;5.75;5.75;;;;;;;;5226699;28;8794;-69
2023/04/25 14:47:58;;;;;;;;;7.00;7.00;;;;;;;;5208765;28;8766;-69
2023/04/25 14:50:30;;;;;;;;;3.50;3.50;;;;;;;;5225222;28;8836;-69
2023/04/25 14:53:01;;;;;;;;;3.00;3.00;;;;;;;;5226411;28;8793;-68
2023/04/25 14:55:31;;;;;;;;;3.00;3.00;;;;;;;;5226424;28;8821;-68
2023/04/25 14:58:02;;;;;;;;;4.00;4.00;;;;;;;;5226679;28;11590;-68
2023/04/25 15:00:52;;;;;;;;;6.00;6.00;;;;;;;;5226472;28;9734;-68
2023/04/25 15:03:22;;;;;;;;;10.33;10.33;;;;;;;;5225150;28;9507;-68
2023/04/25 15:05:54;;;;;;;;;7.50;7.50;;;;;;;;5225917;28;8802;-68
2023/04/25 15:08:44;;;;;;;;;5.50;5.50;;;;;;;;5226261;28;8858;-68
2023/04/25 15:11:15;;;;;;;;;2.00;2.00;;;;;;;;5225917;28;8813;-68
2023/04/25 15:14:04;;;;;;;;;7.75;7.75;;;;;;;;5224518;28;9487;-68
2023/04/25 15:16:35;;;;;;;;;4.33;4.33;;;;;;;;5207628;28;8802;-68
2023/04/25 15:19:07;;;;;;;;;3.25;3.25;;;;;;;;5224604;28;11482;-69
2023/04/25 15:21:37;;;;;;;;;3.50;3.50;;;;;;;;5224639;28;8809;-71
2023/04/25 15:24:09;;;;;;;;;3.25;3.25;;;;;;;;5208189;28;8801;-68
2023/04/25 15:26:40;;;;;;;;;5.75;5.75;;;;;;;;5220159;28;8851;-69
2023/04/25 15:29:29;;;;;;;;;6.50;6.50;;;;;;;;5224674;28;8809;-69
2023/04/25 15:32:19;;;;;;;;;8.00;8.00;;;;;;;;5238917;28;8905;-69
2023/04/25 15:34:50;;;;;;;;;12.50;11.25;;;;;;;;5245733;28;8796;-69
2023/04/25 15:37:22;;;;;;;;;11.00;10.75;;;;;;;;5212423;28;8879;-68
2023/04/25 15:40:09;;;;;;;;;15.00;14.00;;;;;;;;5228613;28;8913;-68
2023/04/25 15:42:50;;;;;;;;;10.00;10.00;;;;;;;;5245492;28;9851;-68
2023/04/25 15:48:12;;;;;;;;;15.00;14.75;;;;;;;;5245168;28;8803;-68
2023/04/25 15:50:43;;;;;;;;;23.20;22.80;;;;;;;;5244655;28;8818;-69
2023/04/25 15:53:15;;;;;;;;;59.00;48.60;;;;;;;;5245080;28;8775;-68